createdAt,value
2018-12-29T00:00:40.166Z,101046.73
2018-12-29T00:03:31.877Z,101050.54
2018-12-29T00:06:22.055Z,101059.69
2018-12-29T00:09:12.469Z,101057.28
2018-12-29T00:12:03.539Z,101063.39
2018-12-29T00:14:55.153Z,101063.42
2018-12-29T00:17:45.887Z,101063.47
2018-12-29T00:20:36.829Z,101059.17
2018-12-29T00:23:27.618Z,101062.88
2018-12-29T00:26:18.246Z,101061.22
2018-12-29T00:29:08.692Z,101068.73
2018-12-29T00:31:59.209Z,101075.74
2018-12-29T00:34:49.583Z,101072.05
2018-12-29T00:37:40.153Z,101066.44
2018-12-29T00:40:30.683Z,101058.84
2018-12-29T00:43:21.215Z,101056.57
2018-12-29T00:46:11.813Z,101064.63
2018-12-29T00:49:02.158Z,101070.64
2018-12-29T00:51:53.095Z,101080.44
2018-12-29T00:54:43.731Z,101070.34
2018-12-29T00:57:34.179Z,101076.53
2018-12-29T01:00:24.650Z,101075.33
2018-12-29T01:03:15.220Z,101064.49
2018-12-29T01:06:07.531Z,101072.37
2018-12-29T01:08:58.043Z,101046.64
2018-12-29T01:11:48.545Z,101067.05
2018-12-29T01:14:38.898Z,101060.51
2018-12-29T01:17:29.065Z,101055.19
2018-12-29T01:20:19.646Z,101066.52
2018-12-29T01:23:10.221Z,101065.29
2018-12-29T01:26:03.757Z,101044.58
2018-12-29T01:28:53.983Z,101059.75
2018-12-29T01:31:44.563Z,101067.00
2018-12-29T01:34:35.276Z,101059.64
2018-12-29T01:37:25.916Z,101036.77
2018-12-29T01:40:16.783Z,101046.18
2018-12-29T01:43:07.202Z,101045.38
2018-12-29T01:45:57.800Z,101044.47
2018-12-29T01:48:48.155Z,101037.03
2018-12-29T01:51:38.825Z,101047.66
2018-12-29T01:54:29.391Z,101040.61
2018-12-29T01:57:21.804Z,101035.75
2018-12-29T02:00:12.115Z,101031.88
2018-12-29T02:03:02.808Z,101027.09
2018-12-29T02:05:53.015Z,101027.05
2018-12-29T02:08:43.501Z,101003.91
2018-12-29T02:11:34.413Z,101012.59
2018-12-29T02:14:25.041Z,101013.51
2018-12-29T02:17:15.926Z,101011.00
2018-12-29T02:20:06.932Z,101005.54
2018-12-29T02:22:57.578Z,100999.69
2018-12-29T02:25:47.923Z,101010.09
2018-12-29T02:28:38.948Z,101001.63
2018-12-29T02:31:29.461Z,101001.17
2018-12-29T02:34:20.988Z,101010.09
2018-12-29T02:37:11.727Z,101006.81
2018-12-29T02:40:02.150Z,101009.45
2018-12-29T02:42:52.600Z,100998.62
2018-12-29T02:45:42.785Z,100998.84
2018-12-29T02:48:33.495Z,100996.05
2018-12-29T02:51:24.075Z,100988.70
2018-12-29T02:54:15.030Z,100995.64
2018-12-29T02:57:05.553Z,100997.84
2018-12-29T02:59:56.095Z,100994.83
2018-12-29T03:02:46.783Z,100995.20
2018-12-29T03:05:37.187Z,100989.58
2018-12-29T03:08:27.904Z,100993.64
2018-12-29T03:11:18.523Z,101000.14
2018-12-29T03:14:09.134Z,100990.84
2018-12-29T03:16:59.797Z,100990.68
2018-12-29T03:19:50.417Z,100992.92
2018-12-29T03:22:40.917Z,100984.32
2018-12-29T03:25:31.669Z,100989.53
2018-12-29T03:28:22.541Z,100985.13
2018-12-29T03:31:13.181Z,100981.93
2018-12-29T03:34:03.500Z,100987.20
2018-12-29T03:36:54.160Z,100993.89
2018-12-29T03:39:44.832Z,100993.00
2018-12-29T03:42:35.155Z,100990.90
2018-12-29T03:45:25.776Z,100996.53
2018-12-29T03:48:16.433Z,100998.88
2018-12-29T03:51:08.647Z,100998.55
2018-12-29T03:53:59.106Z,101001.69
2018-12-29T03:56:49.493Z,100993.35
2018-12-29T03:59:40.047Z,100990.20
2018-12-29T04:02:30.614Z,100991.70
2018-12-29T04:05:21.232Z,100994.64
2018-12-29T04:08:11.984Z,100994.94
2018-12-29T04:11:04.298Z,101003.33
2018-12-29T04:13:54.832Z,101000.96
2018-12-29T04:16:45.678Z,101002.53
2018-12-29T04:19:35.974Z,100997.69
2018-12-29T04:22:26.204Z,100998.02
2018-12-29T04:25:16.882Z,101002.00
2018-12-29T04:28:07.528Z,101007.23
2018-12-29T04:30:58.759Z,101015.91
2018-12-29T04:33:49.138Z,101023.02
2018-12-29T04:36:39.932Z,101029.84
2018-12-29T04:39:30.408Z,101025.06
2018-12-29T04:42:21.086Z,101031.34
2018-12-29T04:45:11.948Z,101025.32
2018-12-29T04:48:02.415Z,101031.55
2018-12-29T04:50:53.222Z,101033.20
2018-12-29T04:53:43.661Z,101021.40
2018-12-29T04:56:34.390Z,101042.27
2018-12-29T04:59:25.208Z,101037.03
2018-12-29T05:02:15.838Z,101042.95
2018-12-29T05:05:06.645Z,101051.20
2018-12-29T05:07:56.949Z,101061.53
2018-12-29T05:10:47.657Z,101064.62
2018-12-29T05:13:38.232Z,101069.93
2018-12-29T05:16:29.650Z,101066.12
2018-12-29T05:19:20.387Z,101068.13
2018-12-29T05:22:11.329Z,101071.70
2018-12-29T05:25:02.057Z,101075.08
2018-12-29T05:27:55.729Z,101076.25
2018-12-29T05:30:46.407Z,101079.29
2018-12-29T05:33:36.977Z,101081.05
2018-12-29T05:36:27.399Z,101071.65
2018-12-29T05:39:18.075Z,101094.09
2018-12-29T05:42:08.774Z,101095.59
2018-12-29T05:44:59.505Z,101093.58
2018-12-29T05:47:50.036Z,101108.78
2018-12-29T05:50:40.581Z,101117.72
2018-12-29T05:53:31.160Z,101114.60
2018-12-29T05:56:21.835Z,101116.39
2018-12-29T05:59:12.225Z,101127.12
2018-12-29T06:02:03.027Z,101135.81
2018-12-29T06:04:53.379Z,101137.06
2018-12-29T06:07:44.303Z,101131.33
2018-12-29T06:10:35.080Z,101131.33
2018-12-29T06:13:28.264Z,101138.06
2018-12-29T06:16:18.817Z,101143.62
2018-12-29T06:19:09.461Z,101145.29
2018-12-29T06:22:00.198Z,101151.08
2018-12-29T06:24:52.056Z,101156.56
2018-12-29T06:27:42.756Z,101164.99
2018-12-29T06:30:33.086Z,101167.70
2018-12-29T06:33:23.785Z,101171.42
2018-12-29T06:36:14.368Z,101166.39
2018-12-29T06:39:05.653Z,101159.95
2018-12-29T06:41:56.174Z,101164.51
2018-12-29T06:44:46.914Z,101166.09
2018-12-29T06:47:37.754Z,101169.31
2018-12-29T06:50:28.144Z,101171.17
2018-12-29T06:53:19.241Z,101164.70
2018-12-29T06:56:09.985Z,101178.01
2018-12-29T06:59:02.492Z,101165.93
2018-12-29T07:01:53.294Z,101162.40
2018-12-29T07:04:43.747Z,101157.61
2018-12-29T07:07:34.238Z,101152.02
2018-12-29T07:10:24.951Z,101155.67
2018-12-29T07:13:15.522Z,101161.30
2018-12-29T07:16:08.024Z,101153.41
2018-12-29T07:18:58.362Z,101159.45
2018-12-29T07:21:48.867Z,101164.73
2018-12-29T07:24:39.593Z,101165.80
2018-12-29T07:27:29.898Z,101175.87
2018-12-29T07:30:20.634Z,101172.20
2018-12-29T07:33:11.383Z,101160.44
2018-12-29T07:36:03.752Z,101171.63
2018-12-29T07:38:54.508Z,101174.83
2018-12-29T07:41:45.275Z,101171.63
2018-12-29T07:44:35.991Z,101172.48
2018-12-29T07:47:26.579Z,101176.99
2018-12-29T07:50:17.087Z,101165.75
2018-12-29T07:53:07.659Z,101174.41
2018-12-29T07:55:58.209Z,101152.30
2018-12-29T07:58:48.790Z,101167.55
2018-12-29T08:01:39.356Z,101176.92
2018-12-29T08:04:29.689Z,101165.47
2018-12-29T08:07:20.377Z,101159.66
2018-12-29T08:10:10.726Z,101154.90
2018-12-29T08:13:01.558Z,101153.97
2018-12-29T08:15:51.901Z,101157.80
2018-12-29T08:18:42.321Z,101168.61
2018-12-29T08:21:32.941Z,101166.11
2018-12-29T08:24:23.523Z,101176.48
2018-12-29T08:27:14.030Z,101170.61
2018-12-29T08:30:05.434Z,101175.02
2018-12-29T08:32:56.400Z,101174.62
2018-12-29T08:35:47.500Z,101170.27
2018-12-29T08:38:38.710Z,101163.81
2018-12-29T08:41:29.929Z,101164.18
2018-12-29T08:44:20.509Z,101174.05
2018-12-29T08:47:11.283Z,101169.84
2018-12-29T08:50:01.911Z,101165.34
2018-12-29T08:52:52.685Z,101167.42
2018-12-29T08:55:42.984Z,101168.50
2018-12-29T08:58:33.989Z,101169.66
2018-12-29T09:01:24.826Z,101174.13
2018-12-29T09:04:15.521Z,101179.20
2018-12-29T09:07:06.328Z,101175.72
2018-12-29T09:09:56.674Z,101174.09
2018-12-29T09:12:47.202Z,101168.84
2018-12-29T09:15:39.258Z,101160.34
2018-12-29T09:18:30.144Z,101151.14
2018-12-29T09:21:20.841Z,101152.71
2018-12-29T09:24:11.470Z,101145.76
2018-12-29T09:27:02.018Z,101137.56
2018-12-29T09:29:52.188Z,101141.19
2018-12-29T09:32:42.970Z,101134.34
2018-12-29T09:35:33.640Z,101131.17
2018-12-29T09:38:24.211Z,101129.05
2018-12-29T09:41:17.732Z,101132.28
2018-12-29T09:44:08.334Z,101123.52
2018-12-29T09:46:59.115Z,101131.56
2018-12-29T09:49:49.881Z,101124.76
2018-12-29T09:52:41.546Z,101138.63
2018-12-29T09:55:31.893Z,101140.33
2018-12-29T09:58:22.364Z,101133.48
2018-12-29T10:01:12.736Z,101121.47
2018-12-29T10:04:03.215Z,101125.80
2018-12-29T10:06:54.065Z,101115.41
2018-12-29T10:09:44.603Z,101119.45
2018-12-29T10:12:35.013Z,101105.74
2018-12-29T10:15:25.495Z,101102.39
2018-12-29T10:18:16.118Z,101094.87
2018-12-29T10:21:06.975Z,101092.61
2018-12-29T10:23:58.038Z,101096.98
2018-12-29T10:26:48.589Z,101091.81
2018-12-29T10:29:39.186Z,101091.34
2018-12-29T10:32:29.506Z,101087.14
2018-12-29T10:35:20.201Z,101075.14
2018-12-29T10:38:10.792Z,101076.31
2018-12-29T10:41:01.275Z,101074.73
2018-12-29T10:43:51.921Z,101070.11
2018-12-29T10:46:42.307Z,101058.56
2018-12-29T10:49:32.701Z,101053.49
2018-12-29T10:52:23.402Z,101049.97
2018-12-29T10:55:14.424Z,101047.64
2018-12-29T10:58:05.120Z,101043.41
2018-12-29T11:00:55.729Z,101040.90
2018-12-29T11:03:46.580Z,101029.48
2018-12-29T11:06:37.188Z,101026.48
2018-12-29T11:09:27.658Z,101034.96
2018-12-29T11:12:18.371Z,101033.23
2018-12-29T11:15:09.026Z,101040.97
2018-12-29T11:17:59.429Z,101035.28
2018-12-29T11:20:49.722Z,101035.80
2018-12-29T11:23:39.982Z,101031.84
2018-12-29T11:26:30.426Z,101035.45
2018-12-29T11:29:21.388Z,101032.06
2018-12-29T11:32:11.934Z,101038.28
2018-12-29T11:35:02.516Z,101041.80
2018-12-29T11:37:53.497Z,101032.06
2018-12-29T11:40:44.150Z,101037.78
2018-12-29T11:43:34.769Z,101024.89
2018-12-29T11:46:25.391Z,101037.20
2018-12-29T11:49:18.104Z,101048.13
2018-12-29T11:52:08.388Z,101046.47
2018-12-29T11:54:59.398Z,101055.89
2018-12-29T11:57:49.894Z,101043.72
2018-12-29T12:00:40.713Z,101052.47
2018-12-29T12:03:31.425Z,101058.05
2018-12-29T12:06:22.285Z,101055.08
2018-12-29T12:09:12.471Z,101042.62
2018-12-29T12:12:03.167Z,101051.13
2018-12-29T12:14:53.671Z,101055.73
2018-12-29T12:17:44.380Z,101054.61
2018-12-29T12:20:34.747Z,101060.73
2018-12-29T12:23:25.130Z,101048.50
2018-12-29T12:26:16.665Z,101040.91
2018-12-29T12:29:10.127Z,101047.39
2018-12-29T12:32:00.711Z,101052.48
2018-12-29T12:34:51.366Z,101052.38
2018-12-29T12:37:41.834Z,101061.36
2018-12-29T12:40:33.275Z,101054.88
2018-12-29T12:43:23.926Z,101060.53
2018-12-29T12:46:14.909Z,101065.02
2018-12-29T12:49:05.489Z,101065.23
2018-12-29T12:51:56.114Z,101073.63
2018-12-29T12:54:46.869Z,101083.19
2018-12-29T12:57:40.673Z,101080.72
2018-12-29T13:00:31.527Z,101096.69
2018-12-29T13:03:22.573Z,101085.32
2018-12-29T13:06:13.493Z,101093.75
2018-12-29T13:09:07.866Z,101095.67
2018-12-29T13:11:58.328Z,101109.67
2018-12-29T13:14:48.761Z,101107.06
2018-12-29T13:17:39.786Z,101107.94
2018-12-29T13:20:30.505Z,101112.53
2018-12-29T13:23:21.066Z,101103.27
2018-12-29T13:26:11.968Z,101115.70
2018-12-29T13:29:02.234Z,101109.30
2018-12-29T13:31:52.666Z,101108.64
2018-12-29T13:34:43.259Z,101102.61
2018-12-29T13:37:33.408Z,101104.37
2018-12-29T13:40:24.036Z,101101.30
2018-12-29T13:43:14.608Z,101096.55
2018-12-29T13:46:06.943Z,101092.72
2018-12-29T13:48:57.662Z,101098.94
2018-12-29T13:51:48.635Z,101099.91
2018-12-29T13:54:39.435Z,101104.97
2018-12-29T13:57:30.109Z,101088.23
2018-12-29T14:00:20.589Z,101119.51
2018-12-29T14:03:11.323Z,101112.81
2018-12-29T14:06:03.944Z,101115.70
2018-12-29T14:08:54.472Z,101122.39
2018-12-29T14:11:45.169Z,101105.58
2018-12-29T14:14:35.856Z,101130.42
2018-12-29T14:17:26.614Z,101134.18
2018-12-29T14:20:17.312Z,101146.90
2018-12-29T14:23:08.219Z,101135.90
2018-12-29T14:25:59.118Z,101140.42
2018-12-29T14:28:49.572Z,101127.27
2018-12-29T14:31:40.030Z,101150.93
2018-12-29T14:34:30.734Z,101145.02
2018-12-29T14:37:21.318Z,101148.84
2018-12-29T14:40:12.440Z,101145.41
2018-12-29T14:43:02.934Z,101150.19
2018-12-29T14:45:53.425Z,101147.92
2018-12-29T14:48:43.939Z,101170.66
2018-12-29T14:51:34.507Z,101164.74
2018-12-29T14:54:25.114Z,101168.36
2018-12-29T14:57:15.916Z,101171.43
2018-12-29T15:00:06.585Z,101176.58
2018-12-29T15:02:58.119Z,101178.58
2018-12-29T15:05:48.461Z,101170.39
2018-12-29T15:08:39.249Z,101189.11
2018-12-29T15:11:29.761Z,101180.02
2018-12-29T15:14:20.502Z,101190.72
2018-12-29T15:17:11.652Z,101187.27
2018-12-29T15:20:02.452Z,101200.94
2018-12-29T15:22:52.830Z,101210.09
2018-12-29T15:25:43.293Z,101210.40
2018-12-29T15:28:33.662Z,101223.00
2018-12-29T15:31:24.362Z,101219.55
2018-12-29T15:34:14.729Z,101243.71
2018-12-29T15:37:05.261Z,101255.53
2018-12-29T15:39:55.954Z,101250.58
2018-12-29T15:42:49.411Z,101260.80
2018-12-29T15:45:39.618Z,101257.35
2018-12-29T15:48:29.960Z,101261.92
2018-12-29T15:51:20.476Z,101273.18
2018-12-29T15:54:11.057Z,101269.36
2018-12-29T15:57:01.943Z,101269.61
2018-12-29T15:59:53.252Z,101282.48
2018-12-29T16:02:43.985Z,101287.80
2018-12-29T16:05:34.529Z,101286.65
2018-12-29T16:08:24.952Z,101280.34
2018-12-29T16:11:15.636Z,101288.92
2018-12-29T16:14:06.313Z,101293.12
2018-12-29T16:16:56.856Z,101291.94
2018-12-29T16:19:47.554Z,101307.55
2018-12-29T16:22:37.768Z,101289.64
2018-12-29T16:25:28.322Z,101283.61
2018-12-29T16:28:18.708Z,101280.84
2018-12-29T16:31:09.306Z,101284.48
2018-12-29T16:34:00.713Z,101300.00
2018-12-29T16:36:51.935Z,101294.44
2018-12-29T16:39:42.894Z,101300.25
2018-12-29T16:42:33.227Z,101311.80
2018-12-29T16:45:23.633Z,101320.46
2018-12-29T16:48:14.207Z,101327.88
2018-12-29T16:51:04.901Z,101335.28
2018-12-29T16:53:55.364Z,101334.87
2018-12-29T16:56:46.041Z,101331.41
2018-12-29T16:59:36.756Z,101337.39
2018-12-29T17:02:27.364Z,101353.18
2018-12-29T17:05:17.927Z,101345.91
2018-12-29T17:08:08.237Z,101351.00
2018-12-29T17:10:58.738Z,101343.64
2018-12-29T17:13:49.544Z,101347.03
2018-12-29T17:16:39.963Z,101349.33
2018-12-29T17:19:30.659Z,101355.91
2018-12-29T17:22:21.056Z,101366.06
2018-12-29T17:25:11.761Z,101378.07
2018-12-29T17:28:02.410Z,101381.00
2018-12-29T17:30:52.893Z,101394.34
2018-12-29T17:33:43.231Z,101384.68
2018-12-29T17:36:41.713Z,101392.92
2018-12-29T17:39:26.233Z,101388.94
2018-12-29T17:42:16.711Z,101380.94
2018-12-29T17:45:07.633Z,101387.45
2018-12-29T17:47:58.211Z,101376.33
2018-12-29T17:50:49.228Z,101372.53
2018-12-29T17:53:47.752Z,101379.37
2018-12-29T17:56:32.454Z,101386.83
2018-12-29T17:59:24.363Z,101369.76
2018-12-29T18:02:15.129Z,101396.80
2018-12-29T18:05:05.779Z,101399.77
2018-12-29T18:07:56.412Z,101396.02
2018-12-29T18:10:47.321Z,101391.85
2018-12-29T18:13:40.212Z,101391.16
2018-12-29T18:16:30.735Z,101393.61
2018-12-29T18:19:20.837Z,101396.81
2018-12-29T18:22:11.440Z,101392.91
2018-12-29T18:25:01.961Z,101401.20
2018-12-29T18:27:52.506Z,101389.50
2018-12-29T18:30:42.932Z,101403.04
2018-12-29T18:33:37.329Z,101391.66
2018-12-29T18:36:26.409Z,101408.08
2018-12-29T18:39:16.724Z,101410.66
2018-12-29T18:42:07.695Z,101413.95
2018-12-29T18:44:58.274Z,101410.49
2018-12-29T18:47:48.869Z,101407.90
2018-12-29T18:50:39.575Z,101414.47
2018-12-29T18:53:30.133Z,101415.02
2018-12-29T18:56:20.867Z,101411.97
2018-12-29T18:59:11.568Z,101412.41
2018-12-29T19:02:01.989Z,101412.13
2018-12-29T19:04:52.591Z,101413.77
2018-12-29T19:07:43.243Z,101410.95
2018-12-29T19:10:34.030Z,101410.34
2018-12-29T19:13:24.955Z,101398.33
2018-12-29T19:16:16.006Z,101418.88
2018-12-29T19:19:06.816Z,101417.38
2018-12-29T19:21:57.747Z,101422.53
2018-12-29T19:24:48.361Z,101427.14
2018-12-29T19:27:38.796Z,101421.52
2018-12-29T19:30:29.428Z,101426.29
2018-12-29T19:33:22.105Z,101427.55
2018-12-29T19:36:12.987Z,101417.50
2018-12-29T19:39:04.640Z,101422.42
2018-12-29T19:41:55.808Z,101420.09
2018-12-29T19:44:47.384Z,101410.41
2018-12-29T19:47:41.098Z,101413.17
2018-12-29T19:50:31.703Z,101415.51
2018-12-29T19:53:22.218Z,101420.20
2018-12-29T19:56:13.975Z,101424.16
2018-12-29T19:59:04.854Z,101421.31
2018-12-29T20:01:55.278Z,101416.78
2018-12-29T20:04:45.829Z,101418.68
2018-12-29T20:07:36.585Z,101424.36
2018-12-29T20:10:28.154Z,101431.32
2018-12-29T20:13:19.739Z,101439.61
2018-12-29T20:16:10.547Z,101431.81
2018-12-29T20:19:00.840Z,101431.70
2018-12-29T20:21:51.857Z,101424.40
2018-12-29T20:24:42.825Z,101423.11
2018-12-29T20:27:33.673Z,101429.76
2018-12-29T20:30:24.377Z,101428.16
2018-12-29T20:33:14.523Z,101442.00
2018-12-29T20:36:06.572Z,101442.69
2018-12-29T20:38:59.998Z,101451.23
2018-12-29T20:41:50.422Z,101449.63
2018-12-29T20:44:41.791Z,101451.37
2018-12-29T20:47:32.278Z,101452.82
2018-12-29T20:50:23.082Z,101452.82
2018-12-29T20:53:14.845Z,101453.50
2018-12-29T20:56:05.208Z,101453.91
2018-12-29T20:58:55.652Z,101453.23
2018-12-29T21:01:46.201Z,101460.42
2018-12-29T21:04:36.794Z,101460.97
2018-12-29T21:07:27.346Z,101463.16
2018-12-29T21:10:17.980Z,101457.42
2018-12-29T21:13:08.874Z,101453.23
2018-12-29T21:16:02.239Z,101451.59
2018-12-29T21:18:52.875Z,101450.71
2018-12-29T21:21:43.794Z,101453.64
2018-12-29T21:24:34.245Z,101454.39
2018-12-29T21:27:24.748Z,101455.89
2018-12-29T21:30:15.041Z,101449.66
2018-12-29T21:33:05.417Z,101454.99
2018-12-29T21:35:55.661Z,101451.39
2018-12-29T21:38:46.288Z,101452.72
2018-12-29T21:41:36.981Z,101450.20
2018-12-29T21:44:27.359Z,101450.80
2018-12-29T21:47:18.187Z,101451.92
2018-12-29T21:50:09.169Z,101451.55
2018-12-29T21:53:00.342Z,101457.77
2018-12-29T21:55:51.215Z,101468.48
2018-12-29T21:58:42.073Z,101466.48
2018-12-29T22:01:32.494Z,101463.89
2018-12-29T22:04:22.731Z,101466.91
2018-12-29T22:07:13.345Z,101468.28
2018-12-29T22:10:04.027Z,101466.17
2018-12-29T22:12:54.475Z,101470.55
2018-12-29T22:15:45.055Z,101474.30
2018-12-29T22:18:35.771Z,101467.36
2018-12-29T22:21:26.286Z,101467.08
2018-12-29T22:24:16.707Z,101462.50
2018-12-29T22:27:07.414Z,101455.54
2018-12-29T22:29:58.157Z,101451.66
2018-12-29T22:32:49.085Z,101453.86
2018-12-29T22:35:39.836Z,101443.43
2018-12-29T22:38:30.520Z,101446.34
2018-12-29T22:41:20.969Z,101454.73
2018-12-29T22:44:11.405Z,101447.42
2018-12-29T22:47:02.078Z,101445.04
2018-12-29T22:49:52.726Z,101451.13
2018-12-29T22:52:43.128Z,101449.80
2018-12-29T22:55:33.889Z,101447.81
2018-12-29T22:58:24.616Z,101441.69
2018-12-29T23:01:15.335Z,101457.92
2018-12-29T23:04:05.950Z,101454.06
2018-12-29T23:06:56.591Z,101453.86
2018-12-29T23:09:46.947Z,101449.27
2018-12-29T23:12:37.370Z,101453.40
2018-12-29T23:15:28.094Z,101448.08
2018-12-29T23:18:18.675Z,101447.94
2018-12-29T23:21:10.842Z,101457.13
2018-12-29T23:24:01.423Z,101460.23
2018-12-29T23:26:52.004Z,101456.58
2018-12-29T23:29:42.801Z,101452.27
2018-12-29T23:32:33.379Z,101452.28
2018-12-29T23:35:24.147Z,101453.67
2018-12-29T23:38:14.839Z,101464.55
2018-12-29T23:41:06.270Z,101461.78
2018-12-29T23:43:57.352Z,101458.18
2018-12-29T23:46:48.175Z,101463.37
2018-12-29T23:49:38.898Z,101457.70
2018-12-29T23:52:29.866Z,101465.51
2018-12-29T23:55:20.510Z,101458.27
2018-12-29T23:58:11.149Z,101456.06
